createdAt,value
2023-01-13T00:01:25.803Z,10.23
2023-01-13T00:03:53.782Z,9.75
2023-01-13T00:06:25.832Z,10.38
2023-01-13T00:08:54.156Z,10.63
2023-01-13T00:11:22.535Z,10.00
2023-01-13T00:13:50.365Z,9.52
2023-01-13T00:16:19.009Z,8.80
2023-01-13T00:18:47.321Z,9.57
2023-01-13T00:21:17.045Z,9.23
2023-01-13T00:23:45.156Z,10.00
2023-01-13T00:26:15.199Z,8.98
2023-01-13T00:28:42.825Z,9.30
2023-01-13T00:31:13.305Z,9.07
2023-01-13T00:33:41.942Z,10.13
2023-01-13T00:36:12.939Z,9.73
2023-01-13T00:38:42.912Z,9.70
2023-01-13T00:41:13.406Z,9.45
2023-01-13T00:43:41.478Z,9.88
2023-01-13T00:46:11.105Z,8.97
2023-01-13T00:48:39.644Z,9.45
2023-01-13T00:51:18.740Z,8.73
2023-01-13T00:53:49.084Z,9.43
2023-01-13T00:56:24.413Z,9.45
2023-01-13T00:58:58.883Z,10.10
2023-01-13T01:01:26.581Z,8.27
2023-01-13T01:03:54.918Z,9.82
2023-01-13T01:06:26.885Z,9.70
2023-01-13T01:08:55.221Z,9.50
2023-01-13T01:11:28.028Z,9.57
2023-01-13T01:13:57.785Z,10.80
2023-01-13T01:16:28.244Z,10.48
2023-01-13T01:18:56.316Z,9.85
2023-01-13T01:21:25.284Z,9.65
2023-01-13T01:23:53.847Z,9.33
2023-01-13T01:26:23.366Z,8.52
2023-01-13T01:28:51.695Z,10.35
2023-01-13T01:31:27.872Z,9.73
2023-01-13T01:33:55.509Z,9.40
2023-01-13T01:36:26.851Z,9.50
2023-01-13T01:38:56.695Z,10.27
2023-01-13T01:41:27.007Z,9.48
2023-01-13T01:44:02.371Z,9.40
2023-01-13T01:46:40.797Z,9.52
2023-01-13T01:49:21.694Z,8.40
2023-01-13T01:51:57.837Z,8.60
2023-01-13T01:54:36.304Z,8.80
2023-01-13T01:57:04.566Z,8.75
2023-01-13T01:59:32.742Z,8.43
2023-01-13T02:02:00.590Z,7.97
2023-01-13T02:04:32.118Z,8.70
2023-01-13T02:07:00.434Z,8.57
2023-01-13T02:09:28.397Z,9.13
2023-01-13T02:12:14.610Z,7.75
2023-01-13T02:14:42.748Z,8.10
2023-01-13T02:17:32.050Z,9.88
2023-01-13T02:20:34.850Z,10.20
2023-01-13T02:23:58.363Z,9.07
2023-01-13T02:26:55.336Z,9.98
2023-01-13T02:29:57.445Z,9.20
2023-01-13T02:32:30.791Z,9.68
2023-01-13T02:35:08.495Z,9.07
2023-01-13T02:37:40.802Z,10.07
2023-01-13T02:40:20.418Z,11.18
2023-01-13T02:43:27.480Z,9.77
2023-01-13T02:46:15.228Z,8.75
2023-01-13T02:48:45.083Z,9.73
2023-01-13T02:51:16.017Z,9.27
2023-01-13T02:53:47.341Z,9.20
2023-01-13T02:56:16.757Z,9.70
2023-01-13T02:58:47.091Z,8.65
2023-01-13T03:01:14.827Z,9.25
2023-01-13T03:03:43.934Z,8.88
2023-01-13T03:06:40.877Z,9.52
2023-01-13T03:09:16.763Z,9.63
2023-01-13T03:12:14.430Z,8.95
2023-01-13T03:14:46.292Z,10.85
2023-01-13T03:17:27.433Z,10.15
2023-01-13T03:20:13.029Z,9.10
2023-01-13T03:23:08.861Z,9.23
2023-01-13T03:25:50.662Z,8.27
2023-01-13T03:28:29.124Z,9.73
2023-01-13T03:31:02.034Z,7.97
2023-01-13T03:34:00.505Z,9.82
2023-01-13T03:36:29.234Z,9.00
2023-01-13T03:39:00.650Z,8.25
2023-01-13T03:41:34.885Z,8.77
2023-01-13T03:44:22.351Z,7.20
2023-01-13T03:47:13.185Z,6.37
2023-01-13T03:49:50.224Z,6.57
2023-01-13T03:52:41.946Z,6.47
2023-01-13T03:55:13.604Z,6.87
2023-01-13T03:57:54.761Z,6.03
2023-01-13T04:00:26.444Z,6.15
2023-01-13T04:03:15.488Z,6.80
2023-01-13T04:05:47.546Z,7.05
2023-01-13T04:08:19.907Z,6.95
2023-01-13T04:10:56.017Z,6.18
2023-01-13T04:13:26.563Z,6.55
2023-01-13T04:15:54.278Z,6.87
2023-01-13T04:18:25.101Z,7.45
2023-01-13T04:20:57.365Z,7.65
2023-01-13T04:23:25.681Z,7.55
2023-01-13T04:25:54.422Z,7.30
2023-01-13T04:28:22.563Z,7.70
2023-01-13T04:30:50.527Z,6.97
2023-01-13T04:33:19.272Z,7.93
2023-01-13T04:35:47.423Z,7.62
2023-01-13T04:38:17.885Z,7.82
2023-01-13T04:40:46.624Z,8.53
2023-01-13T04:43:15.783Z,8.35
2023-01-13T04:45:44.028Z,8.95
2023-01-13T04:48:12.139Z,9.32
2023-01-13T04:50:40.178Z,10.45
2023-01-13T04:53:07.826Z,9.53
2023-01-13T04:55:35.621Z,12.73
2023-01-13T04:58:08.271Z,12.93
2023-01-13T05:00:36.948Z,13.27
2023-01-13T05:03:05.056Z,12.25
2023-01-13T05:05:32.634Z,12.93
2023-01-13T05:08:00.647Z,10.73
2023-01-13T05:10:28.634Z,11.43
2023-01-13T05:13:14.947Z,10.50
2023-01-13T05:16:02.029Z,11.43
2023-01-13T05:18:31.034Z,10.73
2023-01-13T05:20:58.898Z,11.80
2023-01-13T05:23:45.419Z,12.00
2023-01-13T05:26:13.268Z,12.02
2023-01-13T05:28:40.813Z,13.55
2023-01-13T05:31:08.852Z,11.03
2023-01-13T05:33:36.783Z,10.65
2023-01-13T05:36:04.512Z,11.18
2023-01-13T05:38:32.050Z,14.10
2023-01-13T05:41:19.030Z,10.95
2023-01-13T05:43:46.708Z,9.87
2023-01-13T05:46:15.022Z,9.95
2023-01-13T05:48:43.039Z,9.85
2023-01-13T05:51:12.437Z,9.23
2023-01-13T05:53:43.408Z,9.65
2023-01-13T05:56:11.560Z,11.37
2023-01-13T05:58:39.308Z,11.00
2023-01-13T06:01:08.931Z,9.85
2023-01-13T06:03:37.678Z,9.32
2023-01-13T06:06:05.406Z,9.90
2023-01-13T06:08:33.090Z,8.80
2023-01-13T06:11:01.156Z,10.50
2023-01-13T06:13:28.689Z,10.10
2023-01-13T06:15:59.405Z,11.12
2023-01-13T06:18:27.921Z,9.85
2023-01-13T06:20:55.812Z,8.90
2023-01-13T06:23:23.583Z,8.98
2023-01-13T06:26:03.595Z,10.18
2023-01-13T06:28:33.287Z,10.75
2023-01-13T06:31:04.204Z,14.00
2023-01-13T06:33:37.593Z,9.50
2023-01-13T06:36:11.157Z,9.55
2023-01-13T06:38:41.038Z,10.77
2023-01-13T06:41:09.160Z,10.43
2023-01-13T06:43:38.744Z,10.30
2023-01-13T06:46:06.812Z,10.67
2023-01-13T06:48:35.618Z,10.88
2023-01-13T06:51:04.831Z,9.55
2023-01-13T06:53:32.482Z,9.57
2023-01-13T06:56:00.400Z,8.75
2023-01-13T06:58:27.991Z,10.07
2023-01-13T07:01:00.178Z,10.20
2023-01-13T07:03:28.312Z,9.02
2023-01-13T07:05:56.803Z,7.05
2023-01-13T07:08:24.812Z,8.45
2023-01-13T07:10:53.146Z,8.33
2023-01-13T07:13:40.080Z,8.90
2023-01-13T07:16:09.218Z,9.10
2023-01-13T07:18:37.161Z,9.70
2023-01-13T07:21:07.198Z,8.25
2023-01-13T07:23:37.193Z,8.23
2023-01-13T07:26:05.100Z,7.93
2023-01-13T07:28:33.311Z,8.90
2023-01-13T07:31:01.520Z,8.38
2023-01-13T07:33:33.142Z,8.65
2023-01-13T07:36:03.261Z,9.23
2023-01-13T07:38:31.591Z,9.05
2023-01-13T07:41:19.897Z,10.60
2023-01-13T07:43:49.644Z,8.82
2023-01-13T07:46:18.838Z,8.15
2023-01-13T07:48:48.035Z,9.50
2023-01-13T07:51:16.014Z,11.27
2023-01-13T07:53:43.577Z,11.38
2023-01-13T07:56:11.366Z,10.65
2023-01-13T07:58:39.341Z,11.77
2023-01-13T08:01:09.049Z,10.83
2023-01-13T08:03:37.182Z,10.27
2023-01-13T08:06:05.977Z,13.27
2023-01-13T08:08:33.998Z,15.25
2023-01-13T08:11:03.299Z,13.93
2023-01-13T08:13:31.305Z,12.60
2023-01-13T08:16:01.922Z,12.65
2023-01-13T08:18:30.863Z,12.57
2023-01-13T08:21:11.862Z,13.43
2023-01-13T08:23:40.617Z,12.43
2023-01-13T08:26:12.680Z,13.33
2023-01-13T08:28:40.823Z,11.60
2023-01-13T08:31:11.639Z,11.38
2023-01-13T08:33:39.700Z,9.70
2023-01-13T08:36:09.752Z,9.52
2023-01-13T08:38:37.648Z,9.30
2023-01-13T08:41:12.921Z,10.77
2023-01-13T08:43:41.051Z,10.13
2023-01-13T08:46:09.024Z,10.13
2023-01-13T08:48:36.934Z,9.05
2023-01-13T08:51:07.431Z,8.50
2023-01-13T08:53:35.332Z,8.73
2023-01-13T08:56:07.680Z,10.05
2023-01-13T08:58:35.550Z,10.15
2023-01-13T09:01:07.027Z,10.55
2023-01-13T09:03:34.970Z,10.10
2023-01-13T09:06:02.932Z,9.10
2023-01-13T09:08:30.619Z,10.35
2023-01-13T09:10:58.680Z,8.93
2023-01-13T09:13:26.551Z,9.25
2023-01-13T09:15:57.013Z,8.17
2023-01-13T09:18:25.025Z,8.43
2023-01-13T09:20:52.715Z,9.50
2023-01-13T09:23:20.229Z,8.80
2023-01-13T09:25:49.228Z,9.32
2023-01-13T09:28:16.945Z,9.60
2023-01-13T09:30:44.598Z,9.27
2023-01-13T09:33:31.191Z,8.95
2023-01-13T09:35:59.346Z,9.73
2023-01-13T09:38:27.541Z,9.55
2023-01-13T09:40:55.922Z,8.83
2023-01-13T09:43:44.957Z,8.93
2023-01-13T09:46:37.337Z,8.98
2023-01-13T09:49:05.361Z,8.35
2023-01-13T09:51:37.859Z,8.50
2023-01-13T09:54:32.330Z,7.47
2023-01-13T09:57:00.302Z,7.45
2023-01-13T09:59:34.501Z,7.70
2023-01-13T10:02:24.451Z,7.65
2023-01-13T10:05:21.743Z,9.52
2023-01-13T10:07:55.285Z,7.63
2023-01-13T10:10:37.912Z,8.20
2023-01-13T10:13:28.543Z,8.50
2023-01-13T10:15:56.705Z,6.95
2023-01-13T10:18:30.101Z,6.97
2023-01-13T10:21:13.416Z,7.33
2023-01-13T10:23:53.166Z,7.47
2023-01-13T10:26:50.192Z,8.48
2023-01-13T10:29:20.746Z,9.45
2023-01-13T10:31:49.399Z,8.80
2023-01-13T10:34:17.629Z,7.80
2023-01-13T10:37:06.819Z,7.07
2023-01-13T10:39:48.349Z,7.62
2023-01-13T10:42:18.409Z,7.57
2023-01-13T10:44:54.731Z,7.55
2023-01-13T10:47:30.408Z,7.97
2023-01-13T10:50:01.170Z,7.75
2023-01-13T10:52:31.857Z,9.13
2023-01-13T10:55:01.061Z,7.60
2023-01-13T10:57:29.140Z,8.95
2023-01-13T10:59:57.262Z,9.70
2023-01-13T11:02:31.420Z,8.45
2023-01-13T11:05:03.602Z,9.95
2023-01-13T11:07:46.456Z,9.88
2023-01-13T11:10:24.709Z,9.68
2023-01-13T11:13:17.129Z,9.53
2023-01-13T11:15:55.217Z,9.73
2023-01-13T11:18:33.151Z,8.90
2023-01-13T11:21:04.997Z,10.93
2023-01-13T11:23:37.119Z,10.55
2023-01-13T11:26:29.503Z,10.77
2023-01-13T11:29:02.817Z,10.40
2023-01-13T11:31:34.654Z,10.48
2023-01-13T11:34:16.472Z,10.60
2023-01-13T11:36:52.715Z,11.05
2023-01-13T11:39:21.198Z,10.53
2023-01-13T11:45:41.553Z,11.00
2023-01-13T11:48:14.752Z,9.18
2023-01-13T11:50:46.683Z,10.82
2023-01-13T11:53:31.026Z,10.30
2023-01-13T11:56:27.082Z,11.05
2023-01-13T11:59:13.722Z,10.10
2023-01-13T12:01:53.780Z,11.20
2023-01-13T12:04:44.951Z,10.32
2023-01-13T12:07:38.402Z,10.43
2023-01-13T12:10:57.429Z,10.50
2023-01-13T12:13:41.447Z,10.20
2023-01-13T12:16:32.682Z,10.25
2023-01-13T12:20:00.813Z,10.30
2023-01-13T12:22:35.332Z,9.73
2023-01-13T12:25:23.296Z,9.27
2023-01-13T12:27:56.672Z,9.50
2023-01-13T12:30:53.542Z,10.30
2023-01-13T12:33:48.735Z,11.32
2023-01-13T12:36:21.663Z,10.57
2023-01-13T12:38:53.276Z,11.15
2023-01-13T12:42:20.289Z,12.20
2023-01-13T12:45:18.467Z,9.45
2023-01-13T12:47:46.706Z,10.77
2023-01-13T12:50:26.599Z,9.73
2023-01-13T12:53:02.579Z,10.32
2023-01-13T12:55:35.480Z,9.73
2023-01-13T12:58:06.660Z,10.18
2023-01-13T13:00:53.553Z,10.85
2023-01-13T13:03:36.047Z,11.97
2023-01-13T13:06:21.219Z,10.30
2023-01-13T13:09:04.854Z,10.38
2023-01-13T13:11:58.669Z,10.93
2023-01-13T13:14:42.035Z,10.45
2023-01-13T13:17:28.273Z,10.80
2023-01-13T13:19:57.706Z,11.95
2023-01-13T13:22:28.625Z,13.98
2023-01-13T13:24:56.479Z,10.95
2023-01-13T13:27:31.733Z,11.45
2023-01-13T13:30:15.437Z,12.03
2023-01-13T13:33:06.187Z,11.25
2023-01-13T13:35:56.347Z,11.57
2023-01-13T13:39:00.971Z,10.98
2023-01-13T13:41:48.449Z,11.48
2023-01-13T13:44:51.043Z,11.47
2023-01-13T13:47:19.194Z,11.25
2023-01-13T13:49:52.383Z,12.88
2023-01-13T13:52:30.296Z,13.40
2023-01-13T13:55:05.213Z,13.77
2023-01-13T13:57:39.884Z,19.40
2023-01-13T14:00:31.621Z,14.13
2023-01-13T14:03:02.582Z,13.57
2023-01-13T14:05:33.166Z,14.18
2023-01-13T14:08:07.247Z,14.43
2023-01-13T14:10:39.635Z,15.20
2023-01-13T14:13:25.812Z,15.10
2023-01-13T14:16:00.614Z,16.65
2023-01-13T14:18:31.323Z,16.92
2023-01-13T14:21:28.467Z,18.00
2023-01-13T14:24:14.134Z,17.50
2023-01-13T14:26:42.026Z,17.55
2023-01-13T14:29:16.754Z,19.87
2023-01-13T14:31:47.805Z,18.77
2023-01-13T14:34:32.346Z,17.87
2023-01-13T14:37:03.165Z,16.53
2023-01-13T14:39:38.968Z,16.40
2023-01-13T14:42:12.745Z,17.73
2023-01-13T14:44:45.637Z,18.23
2023-01-13T14:47:27.930Z,16.58
2023-01-13T14:50:11.206Z,15.47
2023-01-13T14:52:57.147Z,13.07
2023-01-13T14:55:37.363Z,14.13
2023-01-13T14:58:23.570Z,13.38
2023-01-13T15:00:52.431Z,13.18
2023-01-13T15:03:21.085Z,13.27
2023-01-13T15:05:51.261Z,13.85
2023-01-13T15:08:27.653Z,13.80
2023-01-13T15:11:02.623Z,13.18
2023-01-13T15:13:35.616Z,13.00
2023-01-13T15:16:14.006Z,12.60
2023-01-13T15:18:42.218Z,13.60
2023-01-13T15:21:09.863Z,13.00
2023-01-13T15:23:39.947Z,12.65
2023-01-13T15:26:20.965Z,12.30
2023-01-13T15:28:49.127Z,12.37
2023-01-13T15:31:17.536Z,12.02
2023-01-13T15:33:45.120Z,11.18
2023-01-13T15:36:22.184Z,13.35
2023-01-13T15:38:50.064Z,12.15
2023-01-13T15:41:17.845Z,11.50
2023-01-13T15:44:03.659Z,13.35
2023-01-13T15:46:40.670Z,13.48
2023-01-13T15:49:20.481Z,13.00
2023-01-13T15:51:49.436Z,13.95
2023-01-13T15:54:19.907Z,14.47
2023-01-13T15:56:47.772Z,14.27
2023-01-13T15:59:18.592Z,14.82
2023-01-13T16:01:46.254Z,15.98
2023-01-13T16:04:14.027Z,14.55
2023-01-13T16:06:41.743Z,13.40
2023-01-13T16:09:12.909Z,13.73
2023-01-13T16:11:40.736Z,13.98
2023-01-13T16:14:08.260Z,14.98
2023-01-13T16:16:36.218Z,12.10
2023-01-13T16:19:04.181Z,13.07
2023-01-13T16:21:32.079Z,12.02
2023-01-13T16:23:59.662Z,12.85
2023-01-13T16:26:36.165Z,14.60
2023-01-13T16:29:04.632Z,15.00
2023-01-13T16:31:33.919Z,14.80
2023-01-13T16:34:03.047Z,16.12
2023-01-13T16:36:33.705Z,14.57
2023-01-13T16:39:02.114Z,16.12
2023-01-13T16:41:29.915Z,13.82
2023-01-13T16:43:57.941Z,13.87
2023-01-13T16:46:32.418Z,15.35
2023-01-13T16:49:04.093Z,14.35
2023-01-13T16:51:33.319Z,15.70
2023-01-13T16:54:01.131Z,13.45
2023-01-13T16:56:31.164Z,13.93
2023-01-13T16:59:02.612Z,13.82
2023-01-13T17:01:33.267Z,13.98
2023-01-13T17:04:01.652Z,14.13
2023-01-13T17:06:33.366Z,14.73
2023-01-13T17:09:16.025Z,13.43
2023-01-13T17:11:43.535Z,14.02
2023-01-13T17:14:18.893Z,14.68
2023-01-13T17:16:47.787Z,14.48
2023-01-13T17:19:15.737Z,15.57
2023-01-13T17:21:43.998Z,15.10
2023-01-13T17:24:12.464Z,16.73
2023-01-13T17:26:44.194Z,16.23
2023-01-13T17:29:14.370Z,15.60
2023-01-13T17:31:49.129Z,14.48
2023-01-13T17:34:17.208Z,15.80
2023-01-13T17:36:45.151Z,16.58
2023-01-13T17:39:26.234Z,17.30
2023-01-13T17:41:56.024Z,15.93
2023-01-13T17:44:23.771Z,18.73
2023-01-13T17:46:51.468Z,39.87
2023-01-13T17:49:21.351Z,21.87
2023-01-13T17:51:51.171Z,21.85
2023-01-13T17:54:19.456Z,20.05
2023-01-13T17:56:47.237Z,18.35
2023-01-13T17:59:17.035Z,18.43
2023-01-13T18:01:45.691Z,20.12
2023-01-13T18:04:16.159Z,21.65
2023-01-13T18:06:44.282Z,29.35
2023-01-13T18:09:11.937Z,24.10
2023-01-13T18:11:41.041Z,27.67
2023-01-13T18:14:09.934Z,21.58
2023-01-13T18:16:37.956Z,21.87
2023-01-13T18:19:24.939Z,25.02
2023-01-13T18:22:11.561Z,29.25
2023-01-13T18:24:58.273Z,31.17
2023-01-13T18:27:30.707Z,31.70
2023-01-13T18:30:00.322Z,32.95
2023-01-13T18:32:32.907Z,28.85
2023-01-13T18:35:06.641Z,29.52
2023-01-13T18:37:42.055Z,26.10
2023-01-13T18:40:13.483Z,25.05
2023-01-13T18:42:54.976Z,24.80
2023-01-13T18:45:25.565Z,23.48
2023-01-13T18:47:55.101Z,26.62
2023-01-13T18:50:24.051Z,23.30
2023-01-13T18:52:52.423Z,23.30
2023-01-13T18:55:21.355Z,40.90
2023-01-13T18:57:50.396Z,25.60
2023-01-13T19:00:20.081Z,24.37
2023-01-13T19:02:50.840Z,27.63
2023-01-13T19:05:19.163Z,28.83
2023-01-13T19:07:50.963Z,28.23
2023-01-13T19:10:19.222Z,27.90
2023-01-13T19:12:47.599Z,26.12
2023-01-13T19:15:15.627Z,30.37
2023-01-13T19:17:45.043Z,29.25
2023-01-13T19:20:13.592Z,28.48
2023-01-13T19:22:41.713Z,26.30
2023-01-13T19:25:10.594Z,25.52
2023-01-13T19:27:39.769Z,39.43
2023-01-13T19:30:08.693Z,35.30
2023-01-13T19:32:38.883Z,33.83
2023-01-13T19:35:08.748Z,29.00
2023-01-13T19:37:37.030Z,30.25
2023-01-13T19:40:09.408Z,30.23
2023-01-13T19:42:56.588Z,28.30
2023-01-13T19:45:26.730Z,29.45
2023-01-13T19:48:01.743Z,36.22
2023-01-13T19:50:29.504Z,41.35
2023-01-13T19:52:57.816Z,31.23
2023-01-13T19:55:25.590Z,45.70
2023-01-13T19:57:53.390Z,38.35
2023-01-13T20:00:21.996Z,23.35
2023-01-13T20:02:53.111Z,28.48
2023-01-13T20:05:22.731Z,28.37
2023-01-13T20:07:51.047Z,20.50
2023-01-13T20:10:20.566Z,20.95
2023-01-13T20:12:48.426Z,19.77
2023-01-13T20:15:16.675Z,20.45
2023-01-13T20:17:44.271Z,21.20
2023-01-13T20:20:15.050Z,19.45
2023-01-13T20:22:44.849Z,17.95
2023-01-13T20:25:16.955Z,20.17
2023-01-13T20:27:46.098Z,21.65
2023-01-13T20:30:14.955Z,29.67
2023-01-13T20:32:45.796Z,27.35
2023-01-13T20:35:14.129Z,27.20
2023-01-13T20:37:42.753Z,25.08
2023-01-13T20:40:14.584Z,26.42
2023-01-13T20:42:45.182Z,23.60
2023-01-13T20:45:17.320Z,24.65
2023-01-13T20:47:45.641Z,22.83
2023-01-13T20:50:13.658Z,21.35
2023-01-13T20:52:43.434Z,22.02
2023-01-13T20:55:11.991Z,23.10
2023-01-13T20:57:40.912Z,22.65
2023-01-13T21:00:10.424Z,24.90
2023-01-13T21:02:40.971Z,26.65
2023-01-13T21:05:09.657Z,25.08
2023-01-13T21:07:37.370Z,25.03
2023-01-13T21:10:07.137Z,24.37
2023-01-13T21:12:53.273Z,22.02
2023-01-13T21:15:22.270Z,27.77
2023-01-13T21:18:10.009Z,31.52
2023-01-13T21:20:39.164Z,26.20
2023-01-13T21:23:06.982Z,26.15
2023-01-13T21:25:36.477Z,26.75
2023-01-13T21:28:08.619Z,26.15
2023-01-13T21:30:38.419Z,26.98
2023-01-13T21:33:06.524Z,29.13
2023-01-13T21:35:37.823Z,29.37
2023-01-13T21:38:05.407Z,29.50
2023-01-13T21:40:33.181Z,27.37
2023-01-13T21:43:19.007Z,26.98
2023-01-13T21:46:15.995Z,28.53
2023-01-13T21:48:43.547Z,29.70
2023-01-13T21:51:11.361Z,29.15
2023-01-13T21:53:38.897Z,28.60
2023-01-13T21:56:06.864Z,30.75
2023-01-13T21:58:34.731Z,28.73
2023-01-13T22:01:03.072Z,28.62
2023-01-13T22:03:50.974Z,27.75
2023-01-13T22:06:18.529Z,26.48
2023-01-13T22:08:46.450Z,26.30
2023-01-13T22:11:14.345Z,24.93
2023-01-13T22:14:00.672Z,25.80
2023-01-13T22:16:28.592Z,24.83
2023-01-13T22:18:56.207Z,25.65
2023-01-13T22:21:23.696Z,27.25
2023-01-13T22:23:51.906Z,27.33
2023-01-13T22:26:19.474Z,29.12
2023-01-13T22:28:47.064Z,28.92
2023-01-13T22:31:17.237Z,26.67
2023-01-13T22:33:48.043Z,27.45
2023-01-13T22:36:16.163Z,27.93
2023-01-13T22:38:43.924Z,27.90
2023-01-13T22:41:11.493Z,27.48
2023-01-13T22:43:39.822Z,26.75
2023-01-13T22:46:10.213Z,27.42
2023-01-13T22:48:38.700Z,27.20
2023-01-13T22:51:10.511Z,26.40
2023-01-13T22:53:38.451Z,27.75
2023-01-13T22:56:07.154Z,28.73
2023-01-13T22:58:34.667Z,30.15
2023-01-13T23:01:16.221Z,28.10
2023-01-13T23:03:47.797Z,29.35
2023-01-13T23:06:16.166Z,27.35
2023-01-13T23:08:44.852Z,25.42
2023-01-13T23:11:14.392Z,25.80
2023-01-13T23:13:43.358Z,24.77
2023-01-13T23:16:21.219Z,25.50
2023-01-13T23:18:49.271Z,24.12
2023-01-13T23:21:20.532Z,22.87
2023-01-13T23:23:48.660Z,25.33
2023-01-13T23:26:16.833Z,26.40
2023-01-13T23:28:45.114Z,24.63
2023-01-13T23:31:15.011Z,26.87
2023-01-13T23:33:43.510Z,26.15
2023-01-13T23:36:14.492Z,26.30
2023-01-13T23:38:42.770Z,25.47
2023-01-13T23:41:13.579Z,26.00
2023-01-13T23:43:41.534Z,25.65
2023-01-13T23:46:12.537Z,25.30
2023-01-13T23:48:40.315Z,25.15
2023-01-13T23:51:10.981Z,25.20
2023-01-13T23:53:44.391Z,24.45
2023-01-13T23:56:23.662Z,25.45
2023-01-13T23:58:51.478Z,26.10
